Terminal Aerodrome Forecast
Issued by NWS

Current Version | Previous Version | Text Only | Print | Product List | Glossary Off
Versions: 1 2 3 4 5 6 7 8 9 10 11 12 13 14 15 16 17 18 19 20 21

567
FTUS41 KILN 082101 AAA
TAFLUK
TAF AMD
KLUK 082101Z 0821/0918 26007KT P6SM SCT007 BKN025
      TEMPO 0821/0823 1SM -SN BKN007
     FM082300 28010KT 3SM -SN BKN012 OVC020
     FM090200 28012G20KT 5SM -SN BKN012 OVC020
     FM090600 28011G19KT 5SM -SN SCT008 OVC012=

USA.gov is the U.S. government's official web portal to all federal, state and local government web resources and services.